Time;durP1;ratioP1;P1;durP2;ratioP2;P2;SDS_P1;SDS_P2;PMS_P1;PMS_P2;Temp;Humidity;BMP_temperature;BMP_pressure;BME280_temperature;BME280_humidity;BME280_pressure;Samples;Min_cycle;Max_cycle;Signal;HPM_P1;HPM_P2
2023/05/14 00:01:36;;;;;;;14.43;10.00;;;;;;;12.41;100.00;101571.63;5026074;28;20044;-73
2023/05/14 00:04:02;;;;;;;13.68;9.95;;;;;;;12.40;100.00;101575.19;5031431;28;20041;-73
2023/05/14 00:06:28;;;;;;;13.27;10.50;;;;;;;12.39;100.00;101573.53;5001565;28;20037;-73
2023/05/14 00:08:53;;;;;;;12.38;10.07;;;;;;;12.38;100.00;101569.31;5034490;28;20473;-73
2023/05/14 00:11:20;;;;;;;17.50;9.43;;;;;;;12.38;100.00;101571.09;5033349;28;20029;-73
2023/05/14 00:13:45;;;;;;;14.07;9.68;;;;;;;12.38;100.00;101571.09;5031646;28;20044;-73
2023/05/14 00:16:11;;;;;;;13.90;10.55;;;;;;;12.36;100.00;101570.44;5034957;28;20404;-73
2023/05/14 00:18:36;;;;;;;18.00;11.48;;;;;;;12.34;100.00;101567.16;5008118;28;20057;-73
2023/05/14 00:21:02;;;;;;;17.23;11.40;;;;;;;12.32;100.00;101558.69;5033476;28;20044;-73
2023/05/14 00:23:27;;;;;;;14.48;11.55;;;;;;;12.31;100.00;101562.25;5011523;28;20124;-73
2023/05/14 00:25:53;;;;;;;16.33;12.95;;;;;;;12.29;100.00;101559.81;4994335;28;20029;-73
2023/05/14 00:28:19;;;;;;;15.35;11.25;;;;;;;12.29;100.00;101561.59;5029662;28;20046;-73
2023/05/14 00:30:44;;;;;;;14.50;11.07;;;;;;;12.26;100.00;101557.50;4996597;28;20558;-72
2023/05/14 00:33:10;;;;;;;17.25;12.00;;;;;;;12.25;100.00;101561.06;4991068;28;20404;-73
2023/05/14 00:35:35;;;;;;;18.45;11.57;;;;;;;12.20;100.00;101553.69;5016524;28;20033;-73
2023/05/14 00:38:02;;;;;;;15.75;11.13;;;;;;;12.18;100.00;101549.63;5028723;28;20049;-73
2023/05/14 00:40:27;;;;;;;12.90;10.65;;;;;;;12.16;100.00;101544.56;5011537;28;20028;-73
2023/05/14 00:42:54;;;;;;;15.48;11.60;;;;;;;12.14;100.00;101546.50;5018010;28;20041;-73
2023/05/14 00:45:20;;;;;;;15.70;10.20;;;;;;;12.12;100.00;101545.81;5013264;28;20082;-72
2023/05/14 00:47:46;;;;;;;14.57;10.23;;;;;;;12.10;100.00;101544.34;5015899;28;20068;-73
2023/05/14 00:50:13;;;;;;;15.60;11.27;;;;;;;12.06;100.00;101538.63;5033533;28;20041;-73
2023/05/14 00:52:39;;;;;;;19.48;11.02;;;;;;;12.00;100.00;101534.03;5033148;28;20099;-73
2023/05/14 00:55:06;;;;;;;14.55;10.52;;;;;;;11.95;100.00;101536.25;5009195;28;20029;-73
2023/05/14 00:57:35;;;;;;;15.20;11.60;;;;;;;11.91;100.00;101542.69;5015970;28;20029;-73
2023/05/14 01:00:02;;;;;;;17.42;12.75;;;;;;;11.84;100.00;101532.84;5004969;28;20137;-73
2023/05/14 01:02:28;;;;;;;22.33;12.38;;;;;;;11.78;100.00;101532.63;5008771;28;20219;-73
2023/05/14 01:04:54;;;;;;;21.33;12.35;;;;;;;11.76;100.00;101534.56;5006396;28;20114;-73
2023/05/14 01:07:44;;;;;;;21.40;13.65;;;;;;;11.67;100.00;101537.03;5006341;28;20029;-74
2023/05/14 01:10:15;;;;;;;19.73;15.18;;;;;;;11.37;100.00;101530.34;5027817;28;20038;-74
2023/05/14 01:12:51;;;;;;;20.02;14.23;;;;;;;11.21;100.00;101530.16;5032638;28;20029;-73
2023/05/14 01:15:25;;;;;;;24.30;15.90;;;;;;;11.27;100.00;101533.00;5017171;28;20037;-73
2023/05/14 01:18:00;;;;;;;21.02;14.52;;;;;;;11.04;100.00;101532.53;5036595;28;20033;-73
2023/05/14 01:20:26;;;;;;;18.65;13.32;;;;;;;10.97;100.00;101535.84;5040716;28;20112;-73
2023/05/14 01:22:51;;;;;;;22.65;15.00;;;;;;;10.90;100.00;101559.72;5011885;28;20060;-73
2023/05/14 01:25:17;;;;;;;21.85;14.75;;;;;;;10.83;100.00;101568.22;5010484;28;20399;-73
2023/05/14 01:27:54;;;;;;;20.17;14.18;;;;;;;10.79;100.00;101557.28;5022220;28;22144;-73
2023/05/14 01:30:35;;;;;;;20.05;13.73;;;;;;;10.81;100.00;101549.38;5016543;28;20045;-73
2023/05/14 01:33:06;;;;;;;21.42;16.02;;;;;;;10.84;100.00;101533.53;5016292;28;20484;-73
2023/05/14 01:35:32;;;;;;;20.38;15.20;;;;;;;10.83;100.00;101529.28;5033373;28;20025;-73
2023/05/14 01:38:00;;;;;;;21.25;15.73;;;;;;;10.82;100.00;101531.06;4997658;28;20120;-74
2023/05/14 01:40:26;;;;;;;24.65;16.15;;;;;;;10.82;100.00;101536.25;5035111;28;20028;-73
2023/05/14 01:42:52;;;;;;;22.38;15.18;;;;;;;10.77;100.00;101533.25;5002419;28;20392;-73
2023/05/14 01:45:25;;;;;;;26.08;16.98;;;;;;;10.75;100.00;101526.59;5033848;28;20024;-73
2023/05/14 01:47:51;;;;;;;19.43;14.63;;;;;;;10.75;100.00;101534.38;5003476;28;20076;-73
2023/05/14 01:50:17;;;;;;;24.38;15.05;;;;;;;10.71;100.00;101526.03;5015077;28;20479;-73
2023/05/14 01:52:43;;;;;;;23.60;16.17;;;;;;;10.71;100.00;101531.22;5020733;28;20021;-73
2023/05/14 01:55:08;;;;;;;18.08;14.30;;;;;;;10.69;100.00;101538.34;5005443;28;20041;-73
2023/05/14 01:57:34;;;;;;;23.77;16.20;;;;;;;10.70;100.00;101532.22;5015699;28;20026;-73
2023/05/14 02:00:00;;;;;;;22.85;14.77;;;;;;;10.69;100.00;101533.16;5013243;28;20034;-73
2023/05/14 02:02:28;;;;;;;19.92;14.60;;;;;;;10.70;100.00;101532.22;5031939;28;20029;-74
2023/05/14 02:04:53;;;;;;;22.05;14.90;;;;;;;10.69;100.00;101531.38;5014647;28;20049;-73
2023/05/14 02:07:19;;;;;;;28.13;16.27;;;;;;;10.66;100.00;101520.44;5033477;28;20033;-73
2023/05/14 02:09:44;;;;;;;21.15;14.82;;;;;;;10.64;100.00;101514.59;5016485;28;20087;-73
2023/05/14 02:12:10;;;;;;;21.00;14.70;;;;;;;10.61;100.00;101510.50;5013675;28;20033;-73
2023/05/14 02:14:36;;;;;;;22.38;15.05;;;;;;;10.62;100.00;101525.09;4994089;28;20041;-74
2023/05/14 02:17:02;;;;;;;24.27;14.75;;;;;;;10.61;100.00;101517.47;5017441;28;20025;-73
2023/05/14 02:19:28;;;;;;;18.77;14.02;;;;;;;10.60;100.00;101513.22;5031939;28;20499;-73
2023/05/14 02:21:54;;;;;;;17.98;14.05;;;;;;;10.59;100.00;101509.81;5011575;28;20065;-73
2023/05/14 02:24:19;;;;;;;24.40;14.98;;;;;;;10.59;100.00;101512.41;5010838;28;20526;-73
2023/05/14 02:26:45;;;;;;;21.85;15.45;;;;;;;10.57;100.00;101509.16;5007973;28;20551;-73
2023/05/14 02:29:10;;;;;;;19.77;14.90;;;;;;;10.57;100.00;101513.50;5009464;28;20566;-73
2023/05/14 02:31:36;;;;;;;20.10;14.45;;;;;;;10.56;100.00;101511.88;4999089;28;20037;-73
2023/05/14 02:34:05;;;;;;;26.67;14.90;;;;;;;10.56;100.00;101515.28;5031422;28;20053;-73
2023/05/14 02:36:31;;;;;;;22.10;14.88;;;;;;;10.52;100.00;101508.72;5028688;28;20087;-73
2023/05/14 02:38:58;;;;;;;20.45;14.30;;;;;;;10.50;100.00;101503.69;5017155;28;20061;-73
2023/05/14 02:41:24;;;;;;;21.25;15.00;;;;;;;10.48;100.00;101503.00;5013652;28;20029;-73
2023/05/14 02:43:52;;;;;;;19.58;14.57;;;;;;;10.45;100.00;101503.31;5026557;28;20048;-73
2023/05/14 02:46:17;;;;;;;19.55;14.70;;;;;;;10.43;100.00;101500.00;5032980;28;20160;-73
2023/05/14 02:48:43;;;;;;;19.15;14.30;;;;;;;10.38;100.00;101506.56;5045601;28;20680;-73
2023/05/14 02:51:09;;;;;;;19.73;14.13;;;;;;;10.33;100.00;101500.00;5008102;28;20734;-73
2023/05/14 02:53:34;;;;;;;17.77;13.80;;;;;;;10.32;100.00;101505.31;5030916;28;20044;-73
2023/05/14 02:56:00;;;;;;;23.23;14.88;;;;;;;10.29;100.00;101506.41;5013791;28;20034;-73
2023/05/14 02:58:25;;;;;;;18.75;13.73;;;;;;;10.28;100.00;101514.31;5026423;28;20044;-74
2023/05/14 03:00:51;;;;;;;18.92;13.60;;;;;;;10.25;100.00;101506.81;5007700;28;20029;-73
2023/05/14 03:03:18;;;;;;;21.35;13.57;;;;;;;10.23;100.00;101514.72;4998350;28;20103;-73
2023/05/14 03:05:43;;;;;;;22.42;13.88;;;;;;;10.19;100.00;101521.16;5040875;28;20030;-72
2023/05/14 03:08:09;;;;;;;20.83;14.38;;;;;;;10.17;100.00;101527.41;5006604;28;20622;-73
2023/05/14 03:10:35;;;;;;;20.42;14.13;;;;;;;10.12;100.00;101507.09;5013722;28;20033;-73
2023/05/14 03:13:00;;;;;;;19.85;14.35;;;;;;;10.08;100.00;101514.31;5014340;28;20491;-73
2023/05/14 03:15:26;;;;;;;20.90;15.00;;;;;;;10.06;100.00;101513.63;5033414;28;20029;-73
2023/05/14 03:17:51;;;;;;;20.42;15.25;;;;;;;10.04;100.00;101502.59;5030985;28;20399;-73
2023/05/14 03:20:17;;;;;;;20.63;14.07;;;;;;;10.03;100.00;101507.88;5017054;28;20036;-73
2023/05/14 03:22:42;;;;;;;18.73;14.18;;;;;;;9.98;100.00;101508.28;5013423;28;20044;-73
2023/05/14 03:25:08;;;;;;;21.63;14.45;;;;;;;9.95;100.00;101505.97;5028661;28;20056;-73
2023/05/14 03:27:34;;;;;;;22.95;14.88;;;;;;;9.91;100.00;101502.84;5010358;28;20029;-73
2023/05/14 03:29:59;;;;;;;25.70;15.10;;;;;;;9.87;100.00;101508.41;5019461;28;20090;-73
2023/05/14 03:32:25;;;;;;;22.35;16.92;;;;;;;9.85;100.00;101505.13;5015379;28;20040;-73
2023/05/14 03:34:51;;;;;;;22.52;15.73;;;;;;;9.80;100.00;101502.16;5005288;28;20058;-73
2023/05/14 03:37:16;;;;;;;21.60;14.23;;;;;;;9.76;100.00;101499.00;5011445;28;20025;-73
2023/05/14 03:39:42;;;;;;;22.85;15.68;;;;;;;9.72;100.00;101497.63;5015875;28;20038;-73
2023/05/14 03:42:07;;;;;;;26.60;16.38;;;;;;;9.68;100.00;101494.50;5014776;28;20495;-73
2023/05/14 03:44:33;;;;;;;18.98;14.93;;;;;;;9.68;100.00;101498.81;5017965;28;20120;-74
2023/05/14 03:46:58;;;;;;;21.70;14.68;;;;;;;9.65;100.00;101496.53;5013386;28;20161;-73
2023/05/14 03:49:24;;;;;;;19.83;14.32;;;;;;;9.62;100.00;101500.16;5014719;28;20116;-73
2023/05/14 03:51:49;;;;;;;19.77;14.40;;;;;;;9.58;100.00;101503.16;5029477;28;20396;-73
2023/05/14 03:54:15;;;;;;;19.13;14.40;;;;;;;9.53;100.00;101506.97;5014170;28;20395;-73
2023/05/14 03:56:40;;;;;;;18.95;13.88;;;;;;;9.52;100.00;101496.75;5041630;28;20036;-73
2023/05/14 03:59:07;;;;;;;20.25;14.90;;;;;;;9.52;100.00;101494.16;5014894;28;20056;-73
2023/05/14 04:01:32;;;;;;;19.50;14.35;;;;;;;9.52;100.00;101494.97;5000186;28;20029;-73
2023/05/14 04:03:58;;;;;;;23.35;15.30;;;;;;;9.50;100.00;101493.47;5027880;28;20049;-74
2023/05/14 04:06:23;;;;;;;19.90;14.95;;;;;;;9.48;100.00;101493.59;5014035;28;20090;-73
2023/05/14 04:08:49;;;;;;;19.85;14.32;;;;;;;9.46;100.00;101486.94;5010612;28;20045;-73
2023/05/14 04:11:14;;;;;;;23.15;15.65;;;;;;;9.45;100.00;101487.88;4998245;28;20029;-73
2023/05/14 04:13:40;;;;;;;24.45;14.40;;;;;;;9.41;100.00;101492.50;4999785;28;20385;-74
2023/05/14 04:16:06;;;;;;;21.02;14.95;;;;;;;9.38;100.00;101495.34;5017935;28;20029;-73
2023/05/14 04:18:34;;;;;;;22.02;13.40;;;;;;;9.34;100.00;101493.97;5019688;28;20496;-73
2023/05/14 04:20:59;;;;;;;21.38;14.15;;;;;;;9.32;100.00;101494.13;4994104;28;20024;-73
2023/05/14 04:23:25;;;;;;;18.55;13.48;;;;;;;9.29;100.00;101488.38;5006921;28;20099;-73
2023/05/14 04:25:50;;;;;;;20.15;14.10;;;;;;;9.27;100.00;101500.63;5008852;28;20029;-72
2023/05/14 04:28:16;;;;;;;16.50;13.55;;;;;;;9.23;100.00;101496.63;5023193;28;20037;-73
2023/05/14 04:30:41;;;;;;;21.05;15.27;;;;;;;9.16;100.00;101492.00;5028599;28;20739;-74
2023/05/14 04:33:07;;;;;;;19.55;14.00;;;;;;;9.14;100.00;101488.72;5007492;28;20060;-72
2023/05/14 04:35:32;;;;;;;20.02;13.57;;;;;;;9.15;100.00;101492.13;5027207;28;20040;-74
2023/05/14 04:37:58;;;;;;;20.40;12.63;;;;;;;9.15;100.00;101490.38;5025324;28;20071;-74
2023/05/14 04:40:23;;;;;;;17.98;12.98;;;;;;;9.19;100.00;101495.25;5006803;28;20112;-74
2023/05/14 04:42:49;;;;;;;17.92;13.75;;;;;;;9.19;100.00;101490.91;4992185;28;20091;-74
2023/05/14 04:45:15;;;;;;;19.00;12.95;;;;;;;9.20;100.00;101491.75;5028331;28;20055;-74
2023/05/14 04:47:41;;;;;;;23.50;12.55;;;;;;;9.20;100.00;101500.31;5020850;28;20108;-74
2023/05/14 04:50:08;;;;;;;16.00;12.30;;;;;;;9.21;100.00;101493.38;5041786;28;20530;-74
2023/05/14 04:52:34;;;;;;;18.70;13.63;;;;;;;9.24;100.00;101501.69;5024636;28;20040;-74
2023/05/14 04:54:59;;;;;;;26.30;17.27;;;;;;;9.30;100.00;101492.59;5028129;28;20596;-74
2023/05/14 04:57:25;;;;;;;24.88;16.30;;;;;;;9.34;100.00;101489.63;4999986;28;20034;-74
2023/05/14 04:59:50;;;;;;;22.90;15.13;;;;;;;9.39;100.00;101489.22;5037677;28;20045;-74
2023/05/14 05:02:16;;;;;;;20.48;15.48;;;;;;;9.40;100.00;101484.84;5029981;28;20047;-74
2023/05/14 05:04:41;;;;;;;20.58;15.55;;;;;;;9.44;100.00;101497.41;5016776;28;20049;-74
2023/05/14 05:07:07;;;;;;;19.48;13.85;;;;;;;9.47;100.00;101489.38;5030281;28;20083;-74
2023/05/14 05:09:32;;;;;;;20.33;15.07;;;;;;;9.48;100.00;101491.00;5035386;28;20083;-74
2023/05/14 05:11:58;;;;;;;18.45;14.55;;;;;;;9.48;100.00;101493.59;5038368;28;20037;-74
2023/05/14 05:14:23;;;;;;;19.25;13.77;;;;;;;9.51;100.00;101493.34;5029623;28;20048;-74
2023/05/14 05:16:50;;;;;;;16.17;12.45;;;;;;;9.55;100.00;101497.31;5010798;28;20087;-74
2023/05/14 05:19:15;;;;;;;22.98;13.50;;;;;;;9.59;100.00;101494.44;5031879;28;20453;-74
2023/05/14 05:21:41;;;;;;;19.23;13.70;;;;;;;9.62;100.00;101494.19;5032960;28;20026;-74
2023/05/14 05:24:07;;;;;;;16.95;12.77;;;;;;;9.66;100.00;101491.22;5023331;28;20401;-74
2023/05/14 05:26:35;;;;;;;22.63;12.32;;;;;;;9.70;100.00;101492.59;5025153;28;20029;-73
2023/05/14 05:29:01;;;;;;;22.27;14.05;;;;;;;9.77;100.00;101486.84;5026020;28;20088;-73
2023/05/14 05:31:27;;;;;;;21.33;15.73;;;;;;;9.84;100.00;101493.97;5030752;28;20124;-73
2023/05/14 05:33:52;;;;;;;23.60;17.33;;;;;;;9.93;100.00;101498.34;5008521;28;20133;-73
2023/05/14 05:36:18;;;;;;;24.17;17.38;;;;;;;9.99;100.00;101498.75;5030932;28;20033;-73
2023/05/14 05:38:43;;;;;;;33.45;20.88;;;;;;;10.05;100.00;101496.44;5022420;28;20069;-74
2023/05/14 05:41:09;;;;;;;26.75;19.20;;;;;;;10.13;100.00;101500.94;5028656;28;20446;-73
2023/05/14 05:43:34;;;;;;;26.27;19.75;;;;;;;10.22;100.00;101494.13;5026780;28;20049;-73
2023/05/14 05:46:00;;;;;;;35.30;21.48;;;;;;;10.37;100.00;101495.38;5025562;28;20036;-72
2023/05/14 05:48:25;;;;;;;27.63;20.55;;;;;;;10.60;100.00;101489.88;5030732;28;20034;-74
2023/05/14 05:50:51;;;;;;;29.80;20.23;;;;;;;10.86;100.00;101488.31;5034741;28;20037;-74
2023/05/14 05:53:17;;;;;;;31.92;22.13;;;;;;;11.16;100.00;101483.84;5011623;28;20706;-73
2023/05/14 05:55:42;;;;;;;30.75;21.42;;;;;;;11.42;100.00;101489.19;5026453;28;20013;-74
2023/05/14 05:58:08;;;;;;;28.63;21.40;;;;;;;11.66;100.00;101491.25;5009766;28;20073;-74
2023/05/14 06:00:33;;;;;;;30.90;22.33;;;;;;;11.93;100.00;101488.78;5006360;28;20026;-73
2023/05/14 06:02:59;;;;;;;29.00;19.63;;;;;;;12.18;100.00;101485.44;5010440;28;20065;-73
2023/05/14 06:05:25;;;;;;;27.63;19.42;;;;;;;12.42;100.00;101484.81;5028627;28;20168;-74
2023/05/14 06:07:52;;;;;;;28.90;19.85;;;;;;;12.64;100.00;101487.91;5000604;28;20127;-74
2023/05/14 06:10:18;;;;;;;25.65;17.00;;;;;;;12.90;100.00;101480.06;5010885;28;20120;-73
2023/05/14 06:12:43;;;;;;;74.80;36.53;;;;;;;13.07;100.00;101493.97;5029370;28;20137;-73
2023/05/14 06:15:10;;;;;;;35.58;22.02;;;;;;;13.21;97.51;101496.00;5015672;28;20055;-73
2023/05/14 06:17:35;;;;;;;26.73;17.13;;;;;;;13.44;96.90;101495.47;5031286;28;20060;-73
2023/05/14 06:20:01;;;;;;;25.02;16.88;;;;;;;13.66;95.95;101495.88;5029874;28;20681;-74
2023/05/14 06:22:26;;;;;;;29.13;18.42;;;;;;;13.86;94.82;101492.00;5031012;28;20798;-74
2023/05/14 06:24:51;;;;;;;20.88;14.77;;;;;;;14.11;93.95;101492.00;5022608;28;20530;-73
2023/05/14 06:27:17;;;;;;;25.83;15.23;;;;;;;14.28;93.08;101493.66;5030592;28;20099;-73
2023/05/14 06:29:42;;;;;;;18.35;14.13;;;;;;;14.50;92.60;101486.13;5010978;28;20057;-73
2023/05/14 06:32:09;;;;;;;21.17;14.70;;;;;;;14.64;91.58;101490.72;5036335;28;20037;-73
2023/05/14 06:34:34;;;;;;;19.30;14.98;;;;;;;14.79;91.07;101485.63;5007206;28;20124;-74
2023/05/14 06:37:01;;;;;;;19.63;15.15;;;;;;;14.96;90.38;101482.00;5028832;28;20033;-73
2023/05/14 06:39:27;;;;;;;21.70;15.57;;;;;;;15.10;90.36;101487.50;5031210;28;20045;-73
2023/05/14 06:41:52;;;;;;;18.25;13.73;;;;;;;15.18;89.46;101484.84;5008142;28;20099;-73
2023/05/14 06:44:18;;;;;;;25.13;14.93;;;;;;;15.40;88.54;101479.88;5021331;28;20111;-73
2023/05/14 06:46:43;;;;;;;21.13;14.52;;;;;;;15.42;85.03;101483.94;5027811;28;22726;-74
2023/05/14 06:49:09;;;;;;;19.08;14.40;;;;;;;15.59;83.38;101479.41;5007201;28;20037;-74
2023/05/14 06:51:34;;;;;;;17.92;12.80;;;;;;;15.83;82.87;101475.88;5014845;28;20403;-74
2023/05/14 06:54:00;;;;;;;18.83;14.05;;;;;;;16.03;80.57;101475.41;5007463;28;20046;-74
2023/05/14 06:56:26;;;;;;;20.05;13.50;;;;;;;16.37;80.43;101479.34;5030096;28;20500;-74
2023/05/14 06:58:51;;;;;;;19.13;13.48;;;;;;;16.73;80.16;101474.28;5045634;28;20048;-74
2023/05/14 07:01:16;;;;;;;22.75;15.00;;;;;;;16.73;77.34;101479.50;5030941;28;20045;-74
2023/05/14 07:03:42;;;;;;;20.08;13.32;;;;;;;17.06;76.60;101473.91;5029974;28;20111;-74
2023/05/14 07:06:07;;;;;;;21.27;13.98;;;;;;;17.43;75.40;101472.16;5034338;28;20117;-74
2023/05/14 07:08:33;;;;;;;19.75;12.88;;;;;;;17.79;75.91;101479.19;4993822;28;20050;-74
2023/05/14 07:10:58;;;;;;;18.90;14.45;;;;;;;18.15;73.37;101473.88;5005388;28;20072;-74
2023/05/14 07:13:26;;;;;;;15.18;11.63;;;;;;;18.45;73.81;101479.75;5031972;28;20081;-74
2023/05/14 07:15:54;;;;;;;18.88;11.55;;;;;;;18.86;71.08;101478.22;5031530;28;20066;-74
2023/05/14 07:18:20;;;;;;;18.45;13.35;;;;;;;19.13;69.86;101475.69;5010830;28;20050;-74
2023/05/14 07:20:45;;;;;;;17.77;13.50;;;;;;;19.12;67.49;101471.44;5030514;28;20053;-74
2023/05/14 07:23:11;;;;;;;19.65;13.07;;;;;;;19.01;69.01;101475.44;5018684;28;20048;-74
2023/05/14 07:25:37;;;;;;;17.42;12.20;;;;;;;19.36;67.32;101473.53;5012842;28;20040;-75
2023/05/14 07:28:03;;;;;;;21.75;13.73;;;;;;;19.43;65.78;101476.19;5071251;23;20049;-74
2023/05/14 07:30:28;;;;;;;21.02;13.32;;;;;;;19.59;64.37;101477.63;5057834;28;20036;-74
2023/05/14 07:32:54;;;;;;;26.17;13.65;;;;;;;19.57;65.29;101475.22;5056265;28;20029;-75
2023/05/14 07:35:19;;;;;;;15.73;12.45;;;;;;;20.06;64.16;101472.47;5054452;28;20155;-74
2023/05/14 07:37:45;;;;;;;15.10;11.45;;;;;;;19.37;64.59;101474.38;5074181;28;20032;-74
2023/05/14 07:40:10;;;;;;;16.02;11.57;;;;;;;19.83;65.12;101471.03;5054347;28;20044;-74
2023/05/14 07:42:36;;;;;;;17.10;11.88;;;;;;;19.71;65.49;101473.44;5039082;28;20078;-74
2023/05/14 07:45:02;;;;;;;20.02;12.25;;;;;;;19.48;65.50;101476.44;5051433;28;20056;-75
2023/05/14 07:47:28;;;;;;;17.25;12.23;;;;;;;19.11;63.98;101470.63;5061219;28;20043;-75
2023/05/14 07:49:57;;;;;;;14.55;11.65;;;;;;;19.02;66.15;101471.81;5074150;28;20052;-74
2023/05/14 07:52:22;;;;;;;19.92;12.63;;;;;;;19.44;64.42;101467.31;5056281;28;20204;-74
2023/05/14 07:54:50;;;;;;;21.90;12.48;;;;;;;19.48;63.52;101468.53;5051484;28;20044;-74
2023/05/14 07:57:15;;;;;;;18.83;10.95;;;;;;;19.45;64.94;101474.97;5054570;28;20032;-74
2023/05/14 07:59:41;;;;;;;17.50;12.23;;;;;;;19.61;66.77;101468.56;5052771;28;20033;-73
2023/05/14 08:02:08;;;;;;;19.38;12.77;;;;;;;20.55;64.62;101468.56;5053899;28;20490;-74
2023/05/14 08:04:34;;;;;;;18.08;11.82;;;;;;;20.93;63.28;101468.69;5031045;28;20052;-74
2023/05/14 08:07:00;;;;;;;16.33;12.85;;;;;;;20.74;60.83;101466.94;5072872;28;20029;-73
2023/05/14 08:09:26;;;;;;;16.30;11.52;;;;;;;20.09;63.22;101472.88;5054495;28;20041;-73
2023/05/14 08:11:51;;;;;;;18.25;12.98;;;;;;;19.28;66.46;101478.97;5057824;28;20025;-74
2023/05/14 08:14:16;;;;;;;15.05;12.07;;;;;;;19.44;65.78;101470.75;5045738;28;20521;-74
2023/05/14 08:16:42;;;;;;;19.33;12.60;;;;;;;19.01;68.21;101485.97;5037296;28;20087;-74
2023/05/14 08:19:07;;;;;;;19.08;12.52;;;;;;;19.69;66.10;101477.28;5033896;28;20049;-74
2023/05/14 08:21:33;;;;;;;19.55;12.27;;;;;;;20.48;63.72;101473.84;5051911;28;20028;-74
2023/05/14 08:23:58;;;;;;;18.73;12.38;;;;;;;21.10;61.07;101468.25;5063939;28;20048;-74
2023/05/14 08:26:24;;;;;;;17.40;11.48;;;;;;;21.20;59.16;101465.94;5052564;28;20040;-73
2023/05/14 08:28:50;;;;;;;14.10;10.52;;;;;;;21.76;55.42;101470.50;5073039;28;20059;-75
2023/05/14 08:31:15;;;;;;;16.75;10.82;;;;;;;22.00;56.33;101464.63;5048964;28;20047;-75
2023/05/14 08:33:41;;;;;;;16.70;11.50;;;;;;;22.14;54.14;101466.16;5052857;28;20095;-74
2023/05/14 08:36:06;;;;;;;15.95;10.10;;;;;;;21.97;51.69;101464.03;5065495;28;20036;-74
2023/05/14 08:38:32;;;;;;;18.05;12.48;;;;;;;21.71;51.45;101459.78;5049071;28;20048;-74
2023/05/14 08:40:59;;;;;;;16.70;12.05;;;;;;;21.56;51.19;101460.06;5047226;28;20056;-75
2023/05/14 08:44:05;;;;;;;14.38;10.80;;;;;;;21.75;51.25;101457.53;5054950;28;20074;-75
2023/05/14 08:46:32;;;;;;;18.38;12.75;;;;;;;21.85;53.77;101459.69;5053216;28;20049;-74
2023/05/14 08:49:11;;;;;;;19.73;12.05;;;;;;;22.22;53.94;101457.13;5036811;28;20048;-74
2023/05/14 08:51:37;;;;;;;16.58;11.27;;;;;;;22.77;51.93;101454.53;5068255;28;20469;-72
2023/05/14 08:54:04;;;;;;;13.63;9.90;;;;;;;22.98;51.08;101452.47;5070204;28;20051;-74
2023/05/14 08:56:32;;;;;;;15.18;9.63;;;;;;;23.08;49.95;101448.31;5069648;28;20036;-74
2023/05/14 08:58:57;;;;;;;14.02;10.15;;;;;;;23.26;51.08;101449.28;5052525;28;20044;-74
2023/05/14 09:01:24;;;;;;;17.05;9.30;;;;;;;23.39;47.72;101443.81;5045446;28;20048;-74
2023/05/14 09:03:51;;;;;;;13.70;11.38;;;;;;;23.33;51.71;101442.88;5047601;28;20051;-73
2023/05/14 09:06:18;;;;;;;14.80;10.90;;;;;;;23.65;51.93;101439.16;5043888;28;20032;-73
2023/05/14 09:08:43;;;;;;;12.30;9.43;;;;;;;23.81;49.31;101441.16;5048045;28;20421;-74
2023/05/14 09:11:08;;;;;;;14.30;9.10;;;;;;;23.57;48.41;101435.00;5050894;28;20045;-75
2023/05/14 09:13:38;;;;;;;12.18;9.45;;;;;;;23.36;48.54;101438.16;5044723;28;20572;-75
2023/05/14 09:16:04;;;;;;;16.70;8.95;;;;;;;23.61;45.94;101432.69;5064189;28;20032;-75
2023/05/14 09:18:30;;;;;;;10.82;7.78;;;;;;;23.76;44.86;101435.72;5066843;28;20100;-74
2023/05/14 09:20:56;;;;;;;17.75;8.52;;;;;;;23.77;43.72;101445.28;5051021;28;20032;-74
2023/05/14 09:23:25;;;;;;;11.07;8.55;;;;;;;23.54;46.05;101439.94;5051040;28;20049;-74
2023/05/14 09:25:51;;;;;;;9.93;7.05;;;;;;;23.71;44.47;101432.94;5048452;28;20032;-75
2023/05/14 09:28:17;;;;;;;14.50;10.30;;;;;;;23.87;46.14;101434.16;5070492;28;20056;-74
2023/05/14 09:30:50;;;;;;;13.18;8.82;;;;;;;24.04;46.66;101429.78;5056861;28;20028;-75
2023/05/14 09:33:26;;;;;;;13.85;9.88;;;;;;;24.04;46.09;101428.97;5070729;28;20032;-75
2023/05/14 09:35:54;;;;;;;13.13;9.07;;;;;;;23.88;45.31;101425.16;5068450;28;20485;-75
2023/05/14 09:38:22;;;;;;;8.60;6.13;;;;;;;23.93;45.95;101427.94;5064445;28;20120;-75
2023/05/14 09:40:49;;;;;;;7.90;6.03;;;;;;;24.20;43.70;101427.47;5055369;28;20140;-74
2023/05/14 09:43:14;;;;;;;9.73;6.95;;;;;;;23.65;42.93;101417.97;5068661;28;21919;-74
2023/05/14 09:45:40;;;;;;;11.07;4.93;;;;;;;24.13;42.86;101408.22;5027208;28;20033;-74
2023/05/14 09:48:07;;;;;;;9.38;5.88;;;;;;;24.26;44.09;101406.16;5038142;28;20044;-73
2023/05/14 09:50:40;;;;;;;10.63;6.72;;;;;;;24.36;43.84;101405.56;5052617;28;20056;-74
2023/05/14 09:53:06;;;;;;;10.38;7.18;;;;;;;24.57;43.12;101404.16;5068614;28;20044;-73
2023/05/14 09:55:32;;;;;;;10.63;6.97;;;;;;;24.18;44.39;101403.84;5050976;28;20320;-74
2023/05/14 09:57:57;;;;;;;11.50;8.43;;;;;;;24.14;44.87;101401.91;5037523;28;20115;-73
2023/05/14 10:00:23;;;;;;;9.02;7.05;;;;;;;24.42;44.61;101401.16;5067572;28;20040;-74
2023/05/14 10:02:51;;;;;;;11.32;8.10;;;;;;;24.15;45.36;101400.84;5053197;28;20063;-74
2023/05/14 10:05:19;;;;;;;11.65;8.25;;;;;;;24.31;45.35;101402.00;5070432;28;20032;-74
2023/05/14 10:07:52;;;;;;;13.07;7.95;;;;;;;24.36;46.00;101402.91;5074364;28;20040;-74
2023/05/14 10:10:19;;;;;;;16.85;9.93;;;;;;;24.16;44.80;101395.31;5052030;28;20059;-74
2023/05/14 10:12:54;;;;;;;10.27;6.78;;;;;;;24.61;45.83;101392.03;5059919;28;20426;-74
2023/05/14 10:15:25;;;;;;;12.18;8.00;;;;;;;24.86;42.92;101381.13;5068006;28;20049;-74
2023/05/14 10:17:55;;;;;;;11.68;8.35;;;;;;;24.73;44.53;101391.19;5044304;28;20033;-75
2023/05/14 10:20:22;;;;;;;13.20;9.10;;;;;;;24.31;45.64;101391.41;5068249;28;20490;-74
2023/05/14 10:22:47;;;;;;;11.52;8.32;;;;;;;24.49;47.20;101378.78;5048971;28;20044;-75
2023/05/14 10:25:13;;;;;;;16.88;10.27;;;;;;;24.03;44.86;101387.63;5052994;28;20028;-74
2023/05/14 10:27:39;;;;;;;16.33;8.45;;;;;;;24.16;44.52;101379.44;5058368;28;20506;-74
2023/05/14 10:30:10;;;;;;;17.17;9.02;;;;;;;24.22;46.28;101381.16;5067666;28;20127;-74
2023/05/14 10:32:36;;;;;;;15.57;9.48;;;;;;;24.24;44.61;101376.44;5065010;28;20112;-75
2023/05/14 10:35:19;;;;;;;13.07;8.10;;;;;;;24.65;44.78;101384.41;5055357;28;20498;-75
2023/05/14 10:37:45;;;;;;;18.00;9.85;;;;;;;24.67;45.22;101377.81;5029504;28;20032;-75
2023/05/14 10:40:12;;;;;;;16.33;10.52;;;;;;;24.48;44.23;101379.81;5066755;28;20113;-74
2023/05/14 10:42:42;;;;;;;10.57;8.00;;;;;;;24.77;45.07;101379.88;5052281;28;20083;-75
2023/05/14 10:45:12;;;;;;;13.98;9.43;;;;;;;24.57;45.04;101369.69;5068836;28;20048;-75
2023/05/14 10:47:41;;;;;;;14.20;8.40;;;;;;;24.70;44.48;101368.63;5044911;28;21407;-74
2023/05/14 10:50:09;;;;;;;15.27;9.45;;;;;;;24.89;44.33;101363.13;5064431;28;20612;-75
2023/05/14 10:52:35;;;;;;;17.15;9.80;;;;;;;24.59;44.24;101372.13;5052847;28;20471;-74
2023/05/14 10:55:07;;;;;;;14.70;9.48;;;;;;;24.70;43.66;101359.88;5053424;28;20041;-73
2023/05/14 10:57:38;;;;;;;16.25;8.85;;;;;;;24.52;45.20;101358.19;5032476;28;20033;-74
2023/05/14 11:00:09;;;;;;;16.10;10.25;;;;;;;24.41;44.92;101363.28;5063761;28;20631;-74
2023/05/14 11:02:38;;;;;;;17.13;10.10;;;;;;;24.29;45.13;101351.88;5052294;28;20064;-73
2023/05/14 11:05:12;;;;;;;16.50;10.02;;;;;;;24.64;45.00;101354.47;5052098;28;20102;-74